Cherry Creek, Idaho
Current Conditions -  °F | °C
As of 4:51 AM on Monday 22 Dec 2014 (Local Time) from KLGU Reporting Station
Overcast Overcast  
Wind Chill: 36°   Ceiling: 3500
Heat Index: 40°   Visibility: 10mi
Dew Point: 30°   Wind: 6mph
Humidity: 68%   Direction: NA
Pressure: 29.97"   Gusts: NA
Location:  42.2285°N, 112.313°W
Report Text: KLGU 221151Z AUTO VRB05KT 10SM OVC035 04/M01 A2997 RMK AO2 SLP141 70022 T00441011 10050 20033 58007
Loading
Personal Weather Stations






























Interactive Weather Map New forecast layout! Learn more

10-Day Weather Forecast

Advertisements
Track Severe Weather on mobile